Latest Weather Observations for PORTABLE QFRF

IDQ60801

Issued at 7:02 am EST Saturday 18 November 2017 (issued every 30 minutes, with the page automatically refreshed every 10 minutes)

About weather observations | Map of weather stations | Latest weather observations for QLD | Other Formats
Station Details ID: 250060 Name: PORTABLE QFRF Lat: -23.86 Lon: 151.25 Height: 411.0 m
Data from the previous 72 hours. | See also: Recent months for locations in Queensland
Date/Time
EST
Temp
°C
App
Temp
°C
Dew
Point
°C
Rel
Hum
%
Delta-T
°C
Wind Press
QNH
hPa
Press
MSL
hPa
Rain since
9am
mm
Dir  Spd
km/h
Gust
km/h
Spd
kts
Gust
kts
18/06:30am 20.3 - 15.2 72 3.1 - - - - - - - 0.0
18/06:00am 20.5 - 16.0 75 2.7 - - - - - - - 0.0
18/05:30am 20.7 - 16.2 75 2.8 - - - - - - - 0.0
18/05:00am 20.3 - 16.1 77 2.6 - - - - - - - 0.0
18/04:30am 20.6 - 15.9 74 2.9 - - - - - - - 0.0
18/04:00am 20.7 - 15.9 74 2.9 - - - - - - - 0.0
18/03:30am 20.9 - 16.0 73 3.0 - - - - - - - 0.0
18/03:00am 21.5 - 15.6 69 3.6 - - - - - - - 0.0
18/02:30am 22.4 - 14.8 62 4.6 - - - - - - - 0.0
18/02:00am 22.6 - 14.8 61 4.7 - - - - - - - 0.0
18/01:30am 22.8 - 14.6 60 4.9 - - - - - - - 0.0
18/01:00am 22.9 - 15.1 61 4.7 - - - - - - - 0.0
18/12:30am 23.0 - 16.1 65 4.3 - - - - - - - 0.0
18/12:00am 23.1 - 16.5 66 4.1 - - - - - - - 0.0
 
Date/Time
EST
Temp
°C
App
Temp
°C
Dew
Point
°C
Rel
Hum
%
Delta-T
°C
Wind Press
QNH
hPa
Press
MSL
hPa
Rain since
9am
mm
Dir  Spd
km/h
Gust
km/h
Spd
kts
Gust
kts
17/11:30pm 23.4 - 16.5 65 4.3 - - - - - - - 0.0
17/11:00pm 23.4 - 16.5 65 4.3 - - - - - - - 0.0
17/10:30pm 23.4 - 16.8 66 4.1 - - - - - - - 0.0
17/10:00pm 23.1 - 16.7 67 4.0 - - - - - - - 0.0
17/09:30pm 23.1 - 16.9 68 3.9 - - - - - - - 0.0
17/09:00pm 23.1 - 16.4 66 4.2 - - - - - - - 0.0
17/08:30pm 23.1 - 16.3 65 4.2 - - - - - - - 0.0
17/08:00pm 23.2 - 16.2 64 4.3 - - - - - - - 0.0
17/07:30pm 23.4 - 15.8 62 4.7 - - - - - - - 0.0
17/07:00pm 23.4 - 16.1 63 4.5 - - - - - - - 0.0
17/06:30pm 23.5 - 15.8 62 4.7 - - - - - - - 0.0
17/06:00pm 23.9 - 15.9 61 4.9 - - - - - - - 0.0
17/05:30pm 24.3 - 15.4 57 5.5 - - - - - - - 0.0
17/05:00pm 24.7 - 14.6 53 6.1 - - - - - - - 0.0
17/04:30pm 25.8 - 14.6 50 6.8 - - - - - - - 0.0
17/04:00pm 26.2 - 13.5 45 7.6 - - - - - - - 0.0
17/03:30pm 26.2 - 13.7 46 7.5 - - - - - - - 0.0
17/03:00pm 26.4 - 12.3 41 8.3 - - - - - - - 0.0
17/02:30pm 27.7 - 13.3 41 8.6 - - - - - - - 0.0
17/02:00pm 27.4 - 13.6 42 8.3 - - - - - - - 0.0
17/01:30pm 27.5 - 15.5 48 7.5 - - - - - - - 0.0
17/01:00pm 27.6 - 15.1 46 7.7 - - - - - - - 0.0
17/12:30pm 27.4 - 16.0 49 7.1 - - - - - - - 0.0
17/12:00pm 27.5 - 15.5 48 7.5 - - - - - - - 0.0
17/11:30am 27.7 - 14.1 43 8.3 - - - - - - - 0.0
17/11:00am 26.9 - 15.3 49 7.2 - - - - - - - 0.0
17/10:30am 27.0 - 15.4 49 7.2 - - - - - - - 0.0
17/10:00am 27.2 - 15.5 48 7.3 - - - - - - - 0.0
17/09:30am 26.2 - 15.8 52 6.5 - - - - - - - 0.0
17/08:30am 25.5 - 15.6 54 6.1 - - - - - - - 0.0
17/08:00am 25.5 - 15.5 54 6.2 - - - - - - - 0.0
17/07:30am 24.5 - 15.8 58 5.4 - - - - - - - 0.0
17/07:00am 24.2 - 16.0 60 5.1 - - - - - - - 0.0
17/06:30am 22.2 - 15.9 67 3.9 - - - - - - - 0.0
17/06:00am 20.7 - 15.8 73 3.0 - - - - - - - 0.0
17/05:30am 20.1 - 15.5 75 2.8 - - - - - - - 0.0
17/05:00am 20.0 - 15.4 75 2.8 - - - - - - - 0.0
17/04:30am 19.9 - 15.6 76 2.6 - - - - - - - 0.0
17/04:00am 20.0 - 15.6 76 2.7 - - - - - - - 0.0
17/03:30am 20.2 - 15.8 76 2.7 - - - - - - - 0.0
17/03:00am 20.4 - 15.9 75 2.7 - - - - - - - 0.0
17/02:30am 20.6 - 16.0 75 2.8 - - - - - - - 0.0
17/02:00am 21.5 - 15.9 70 3.4 - - - - - - - 0.0
17/01:30am 21.9 - 15.7 68 3.8 - - - - - - - 0.0
17/01:00am 21.9 - 15.7 68 3.8 - - - - - - - 0.0
17/12:30am 22.2 - 15.9 67 3.9 - - - - - - - 0.0
17/12:00am 22.5 - 16.0 66 4.0 - - - - - - - 0.0
 
Date/Time
EST
Temp
°C
App
Temp
°C
Dew
Point
°C
Rel
Hum
%
Delta-T
°C
Wind Press
QNH
hPa
Press
MSL
hPa
Rain since
9am
mm
Dir  Spd
km/h
Gust
km/h
Spd
kts
Gust
kts
16/11:30pm 22.6 - 15.9 66 4.1 - - - - - - - 0.0
16/11:00pm 22.7 - 15.9 65 4.2 - - - - - - - 0.0
16/10:30pm 22.7 - 16.0 66 4.1 - - - - - - - 0.0
16/10:00pm 22.9 - 15.9 64 4.3 - - - - - - - 0.0
16/09:30pm 23.0 - 15.8 64 4.4 - - - - - - - 0.0
16/09:00pm 23.0 - 16.2 65 4.2 - - - - - - - 0.0
16/08:30pm 23.1 - 15.5 62 4.6 - - - - - - - 0.0
16/08:00pm 23.1 - 15.1 60 4.9 - - - - - - - 0.0
16/07:30pm 23.3 - 14.9 59 5.1 - - - - - - - 0.0
16/07:00pm 23.3 - 15.9 63 4.6 - - - - - - - 0.0
16/06:30pm 23.5 - 16.4 64 4.4 - - - - - - - 0.0
16/06:00pm 24.0 - 16.8 64 4.5 - - - - - - - 0.0
16/05:30pm 24.7 - 15.9 58 5.4 - - - - - - - 0.0
16/05:00pm 25.8 - 15.2 52 6.5 - - - - - - - 0.0
16/04:30pm 26.4 - 15.5 51 6.7 - - - - - - - 0.0
16/04:00pm 27.2 - 15.6 49 7.2 - - - - - - - 0.0
16/03:30pm 27.4 - 15.7 48 7.3 - - - - - - - 0.0
16/03:00pm 27.3 - 16.7 52 6.7 - - - - - - - 0.0
16/02:30pm 27.5 - 17.4 54 6.5 - - - - - - - 0.0
16/02:00pm 27.4 - 17.5 54 6.3 - - - - - - - 0.0
16/01:30pm 27.6 - 17.6 54 6.4 - - - - - - - 0.0
16/01:00pm 27.5 - 16.9 52 6.7 - - - - - - - 0.0
16/12:30pm 27.9 - 16.9 51 7.0 - - - - - - - 0.0
16/12:00pm 27.6 - 17.2 53 6.6 - - - - - - - 0.0
16/11:30am 26.8 - 17.1 55 6.2 - - - - - - - 0.0
16/11:00am 26.7 - 16.4 53 6.5 - - - - - - - 0.0
16/10:30am 27.2 - 16.6 52 6.7 - - - - - - - 0.0
16/10:00am 26.9 - 16.0 51 6.8 - - - - - - - 0.0
16/09:30am 26.4 - 16.1 53 6.4 - - - - - - - 0.0
16/09:00am 25.2 - 15.9 56 5.8 - - - - - - - 0.0
16/08:30am 26.1 - 16.0 53 6.3 - - - - - - - 0.0
16/08:00am 25.0 - 16.4 59 5.4 - - - - - - - 0.0
16/07:30am 24.8 - 16.5 60 5.2 - - - - - - - 0.0
16/07:00am 23.9 - 16.4 63 4.7 - - - - - - - 0.0
16/06:30am 22.4 - 15.9 66 4.0 - - - - - - - 0.0
16/06:00am 20.8 - 15.8 73 3.0 - - - - - - - 0.0
16/05:30am 20.4 - 15.7 74 2.8 - - - - - - - 0.0
16/05:00am 20.2 - 15.6 75 2.8 - - - - - - - 0.0
16/04:00am 20.2 - 15.6 75 2.8 - - - - - - - 0.0
16/03:30am 20.2 - 15.5 74 2.8 - - - - - - - 0.0
16/03:00am 19.9 - 15.6 76 2.6 - - - - - - - 0.0
16/02:30am 20.3 - 15.6 74 2.8 - - - - - - - 0.0
16/02:00am 20.3 - 15.7 75 2.8 - - - - - - - 0.0
16/01:30am 20.2 - 15.8 76 2.7 - - - - - - - 0.0
16/01:00am 20.3 - 15.9 76 2.7 - - - - - - - 0.0
16/12:30am 21.1 - 16.0 72 3.1 - - - - - - - 0.0
16/12:00am 22.3 - 15.6 66 4.1 - - - - - - - 0.0
 
Date/Time
EST
Temp
°C
App
Temp
°C
Dew
Point
°C
Rel
Hum
%
Delta-T
°C
Wind Press
QNH
hPa
Press
MSL
hPa
Rain since
9am
mm
Dir  Spd
km/h
Gust
km/h
Spd
kts
Gust
kts
15/11:30pm 22.4 - 15.8 66 4.0 - - - - - - - 0.0
15/11:00pm 22.5 - 15.2 63 4.4 - - - - - - - 0.0
15/10:30pm 22.6 - 15.6 64 4.3 - - - - - - - 0.0
15/10:00pm 22.7 - 15.4 63 4.4 - - - - - - - 0.0
15/09:30pm 22.8 - 15.3 62 4.6 - - - - - - - 0.0
15/09:00pm 23.0 - 15.7 63 4.5 - - - - - - - 0.0
15/08:30pm 23.1 - 16.1 64 4.3 - - - - - - - 0.0
15/08:00pm 23.0 - 16.7 67 3.9 - - - - - - - 0.0
15/07:30pm 23.0 - 16.8 68 3.9 - - - - - - - 0.0
15/07:00pm 23.0 - 17.0 69 3.8 - - - - - - - 0.0
15/06:30pm 23.2 - 17.2 69 3.8 - - - - - - - 0.0
15/06:00pm 23.5 - 17.1 67 4.0 - - - - - - - 0.0
15/05:30pm 24.2 - 16.8 63 4.6 - - - - - - - 0.0
15/05:00pm 25.2 - 15.1 53 6.2 - - - - - - - 0.0
15/04:30pm 26.0 - 15.7 53 6.4 - - - - - - - 0.0
15/04:00pm 27.0 - 15.5 49 7.1 - - - - - - - 0.0
15/03:30pm 25.9 - 15.3 52 6.5 - - - - - - - 0.0
15/03:00pm 26.3 - 16.4 54 6.2 - - - - - - - 0.0
15/02:30pm 27.3 - 16.1 50 7.0 - - - - - - - 0.0
15/02:00pm 28.0 - 16.8 50 7.1 - - - - - - - 0.0
15/01:30pm 27.9 - 16.4 49 7.2 - - - - - - - 0.0
15/01:00pm 27.2 - 16.3 51 6.8 - - - - - - - 0.0
15/12:30pm 27.5 - 16.4 50 7.0 - - - - - - - 0.0
15/12:00pm 27.9 - 14.2 43 8.3 - - - - - - - 0.0
15/11:30am 27.4 - 13.9 43 8.2 - - - - - - - 0.0
15/11:00am 27.2 - 14.4 45 7.8 - - - - - - - 0.0
15/10:30am 27.0 - 15.3 48 7.2 - - - - - - - 0.0
15/10:00am 26.6 - 15.5 50 6.9 - - - - - - - 0.0
15/09:30am 25.8 - 15.5 53 6.4 - - - - - - - 0.0
15/09:00am 25.5 - 15.7 54 6.1 - - - - - - - 1.0
15/08:30am 25.7 - 16.3 56 5.9 - - - - - - - 1.0
15/08:00am 24.4 - 16.4 61 5.0 - - - - - - - 0.8
15/07:30am 24.0 - 16.4 62 4.7 - - - - - - - 0.8

Other Formats:

Comma delimited format used in spreadsheet applications
http://www.bom.gov.au/fwo/IDQ60801/IDQ60801.99114.axf

JavaScript Object Notation format (JSON) in row-major order
http://www.bom.gov.au/fwo/IDQ60801/IDQ60801.99114.json